createdAt,value
2022-10-07T00:00:12.639Z,0.00
2022-10-07T00:10:12.752Z,0.00
2022-10-07T00:20:12.853Z,0.00
2022-10-07T00:30:12.967Z,0.00
2022-10-07T00:40:12.988Z,0.00
2022-10-07T00:50:13.294Z,0.00
2022-10-07T01:00:13.343Z,0.00
2022-10-07T01:10:13.642Z,0.00
2022-10-07T01:20:13.672Z,0.00
2022-10-07T01:30:14.005Z,0.00
2022-10-07T01:40:14.037Z,0.00
2022-10-07T01:50:14.353Z,0.00
2022-10-07T02:00:14.372Z,0.00
2022-10-07T02:10:14.696Z,0.00
2022-10-07T02:20:14.727Z,0.00
2022-10-07T02:30:15.042Z,0.00
2022-10-07T02:40:15.064Z,0.00
2022-10-07T02:50:15.388Z,0.00
2022-10-07T03:00:15.494Z,0.00
2022-10-07T03:10:15.654Z,0.00
2022-10-07T03:20:15.668Z,0.00
2022-10-07T03:30:16.182Z,0.00
2022-10-07T03:40:15.988Z,0.00
2022-10-07T03:50:16.350Z,0.00
2022-10-07T04:00:16.375Z,0.00
2022-10-07T04:10:16.692Z,0.00
2022-10-07T04:20:16.711Z,0.00
2022-10-07T04:30:17.041Z,0.00
2022-10-07T04:40:17.070Z,0.00
2022-10-07T04:50:17.402Z,0.00
2022-10-07T05:00:17.417Z,0.00
2022-10-07T05:10:17.737Z,0.00
2022-10-07T05:20:17.765Z,0.00
2022-10-07T05:30:18.096Z,0.00
2022-10-07T05:40:18.155Z,0.00
2022-10-07T05:50:18.440Z,0.00
2022-10-07T06:00:18.469Z,0.00
2022-10-07T06:10:18.793Z,5.62
2022-10-07T06:20:18.820Z,5.62
2022-10-07T06:30:19.127Z,5.62
2022-10-07T06:40:19.167Z,11.25
2022-10-07T06:50:19.491Z,11.25
2022-10-07T07:00:19.513Z,22.50
2022-10-07T07:10:19.837Z,28.12
2022-10-07T07:20:19.890Z,61.88
2022-10-07T07:30:20.208Z,56.25
2022-10-07T07:40:20.235Z,56.25
2022-10-07T07:50:20.536Z,61.88
2022-10-07T08:00:20.556Z,78.75
2022-10-07T08:10:20.887Z,90.00
2022-10-07T08:20:20.922Z,95.62
2022-10-07T08:30:21.249Z,106.88
2022-10-07T08:40:21.345Z,123.75
2022-10-07T08:50:21.490Z,135.00
2022-10-07T09:00:21.564Z,151.88
2022-10-07T09:10:21.629Z,50.62
2022-10-07T09:20:21.882Z,67.50
2022-10-07T09:30:22.191Z,146.25
2022-10-07T09:40:22.211Z,56.25
2022-10-07T09:50:22.525Z,146.25
2022-10-07T10:00:22.545Z,151.88
2022-10-07T10:10:22.881Z,151.88
2022-10-07T10:20:22.995Z,151.88
2022-10-07T10:30:23.124Z,157.50
2022-10-07T10:40:23.151Z,163.12
2022-10-07T10:50:23.488Z,168.75
2022-10-07T11:00:23.526Z,163.12
2022-10-07T11:10:23.846Z,168.75
2022-10-07T11:20:24.020Z,168.75
2022-10-07T11:30:24.084Z,168.75
2022-10-07T11:40:28.799Z,168.75
2022-10-07T11:50:24.507Z,174.38
2022-10-07T12:00:24.804Z,168.75
2022-10-07T12:10:24.852Z,168.75
2022-10-07T12:20:25.158Z,168.75
2022-10-07T12:30:25.190Z,168.75
2022-10-07T12:40:25.513Z,168.75
2022-10-07T12:50:25.550Z,157.50
2022-10-07T13:00:25.854Z,163.12
2022-10-07T13:10:25.891Z,163.12
2022-10-07T13:20:26.213Z,157.50
2022-10-07T13:30:26.247Z,157.50
2022-10-07T13:40:26.646Z,151.88
2022-10-07T13:50:26.678Z,146.25
2022-10-07T14:00:27.007Z,135.00
2022-10-07T14:10:27.030Z,129.38
2022-10-07T14:20:27.392Z,123.75
2022-10-07T14:30:27.448Z,118.12
2022-10-07T14:40:27.810Z,112.50
2022-10-07T14:50:27.840Z,106.88
2022-10-07T15:00:28.162Z,95.62
2022-10-07T15:10:28.202Z,78.75
2022-10-07T15:20:28.518Z,61.88
2022-10-07T15:30:28.544Z,16.88
2022-10-07T15:40:28.854Z,11.25
2022-10-07T15:50:28.903Z,5.62
2022-10-07T16:00:29.205Z,5.62
2022-10-07T16:10:29.276Z,5.62
2022-10-07T16:20:29.564Z,0.00
2022-10-07T16:30:29.584Z,0.00
2022-10-07T16:40:29.910Z,0.00
2022-10-07T16:50:29.936Z,0.00
2022-10-07T17:00:30.260Z,0.00
2022-10-07T17:10:30.279Z,0.00
2022-10-07T17:20:30.612Z,0.00
2022-10-07T17:30:30.635Z,0.00
2022-10-07T17:40:30.954Z,0.00
2022-10-07T17:50:30.985Z,0.00
2022-10-07T18:00:31.495Z,0.00
2022-10-07T18:10:31.362Z,0.00
2022-10-07T18:20:31.664Z,0.00
2022-10-07T18:30:31.826Z,0.00
2022-10-07T18:40:32.092Z,0.00
2022-10-07T18:50:33.673Z,0.00
2022-10-07T19:00:32.548Z,0.00
2022-10-07T19:10:37.320Z,0.00
2022-10-07T19:20:32.647Z,0.00
2022-10-07T19:30:32.987Z,0.00
2022-10-07T19:40:33.015Z,0.00
2022-10-07T19:50:33.359Z,0.00
2022-10-07T20:00:33.385Z,0.00
2022-10-07T20:10:33.688Z,0.00
2022-10-07T20:20:33.717Z,0.00
2022-10-07T20:30:33.943Z,0.00
2022-10-07T20:40:34.203Z,0.00
2022-10-07T20:50:34.435Z,0.00
2022-10-07T21:00:34.761Z,0.00
2022-10-07T21:10:34.804Z,0.00
2022-10-07T21:20:35.118Z,0.00
2022-10-07T21:30:35.201Z,0.00
2022-10-07T21:40:35.360Z,0.00
2022-10-07T21:50:35.399Z,0.00
2022-10-07T22:00:35.715Z,0.00
2022-10-07T22:10:35.746Z,0.00
2022-10-07T22:20:36.176Z,0.00
2022-10-07T22:30:36.240Z,0.00
2022-10-07T22:40:36.628Z,0.00
2022-10-07T22:50:36.657Z,0.00
2022-10-07T23:00:36.961Z,0.00
2022-10-07T23:10:36.984Z,0.00
2022-10-07T23:20:37.306Z,0.00
2022-10-07T23:30:37.344Z,0.00
2022-10-07T23:40:37.871Z,0.00
2022-10-07T23:50:37.712Z,0.00
